sensor_id;sensor_type;location;lat;lon;timestamp;pressure;altitude;pressure_sealevel;temperature
85096;BMP280;75436;53.502;10.030;2024-02-14T00:01:42;100938.25;;;4.48
85096;BMP280;75436;53.502;10.030;2024-02-14T00:04:09;100938.00;;;4.50
85096;BMP280;75436;53.502;10.030;2024-02-14T00:06:36;100923.44;;;4.49
85096;BMP280;75436;53.502;10.030;2024-02-14T00:09:03;100929.66;;;4.53
85096;BMP280;75436;53.502;10.030;2024-02-14T00:11:28;100936.41;;;4.54
85096;BMP280;75436;53.502;10.030;2024-02-14T00:13:54;100940.03;;;4.58
85096;BMP280;75436;53.502;10.030;2024-02-14T00:16:21;100950.97;;;4.60
85096;BMP280;75436;53.502;10.030;2024-02-14T00:18:48;100963.19;;;4.59
85096;BMP280;75436;53.502;10.030;2024-02-14T00:21:14;100962.44;;;4.59
85096;BMP280;75436;53.502;10.030;2024-02-14T00:23:40;100968.13;;;4.61
85096;BMP280;75436;53.502;10.030;2024-02-14T00:26:07;100964.75;;;4.60
85096;BMP280;75436;53.502;10.030;2024-02-14T00:28:32;100968.88;;;4.61
85096;BMP280;75436;53.502;10.030;2024-02-14T00:30:58;100972.00;;;4.63
85096;BMP280;75436;53.502;10.030;2024-02-14T00:33:24;100977.97;;;4.63
85096;BMP280;75436;53.502;10.030;2024-02-14T00:35:50;100980.31;;;4.65
85096;BMP280;75436;53.502;10.030;2024-02-14T00:38:15;100979.78;;;4.68
85096;BMP280;75436;53.502;10.030;2024-02-14T00:40:43;100990.44;;;4.76
85096;BMP280;75436;53.502;10.030;2024-02-14T00:43:08;100992.28;;;4.76
85096;BMP280;75436;53.502;10.030;2024-02-14T00:45:34;100988.91;;;4.75
85096;BMP280;75436;53.502;10.030;2024-02-14T00:48:01;100983.19;;;4.73
85096;BMP280;75436;53.502;10.030;2024-02-14T00:50:28;100972.78;;;4.73
85096;BMP280;75436;53.502;10.030;2024-02-14T00:52:55;100967.25;;;4.80
85096;BMP280;75436;53.502;10.030;2024-02-14T00:55:21;100976.59;;;4.81
85096;BMP280;75436;53.502;10.030;2024-02-14T00:57:47;100969.84;;;4.85
85096;BMP280;75436;53.502;10.030;2024-02-14T01:00:14;100979.75;;;4.88
85096;BMP280;75436;53.502;10.030;2024-02-14T01:02:42;100998.97;;;4.92
85096;BMP280;75436;53.502;10.030;2024-02-14T01:05:08;100999.47;;;4.94
85096;BMP280;75436;53.502;10.030;2024-02-14T01:07:35;100999.72;;;4.97
85096;BMP280;75436;53.502;10.030;2024-02-14T01:10:02;101013.75;;;5.11
85096;BMP280;75436;53.502;10.030;2024-02-14T01:12:29;101020.22;;;5.08
85096;BMP280;75436;53.502;10.030;2024-02-14T01:14:55;101016.03;;;5.12
85096;BMP280;75436;53.502;10.030;2024-02-14T01:17:22;101022.28;;;5.11
85096;BMP280;75436;53.502;10.030;2024-02-14T01:19:47;101015.25;;;5.12
85096;BMP280;75436;53.502;10.030;2024-02-14T01:22:14;101013.47;;;5.07
85096;BMP280;75436;53.502;10.030;2024-02-14T01:24:44;101000.16;;;5.14
85096;BMP280;75436;53.502;10.030;2024-02-14T01:27:10;100982.00;;;5.09
85096;BMP280;75436;53.502;10.030;2024-02-14T01:29:35;100968.47;;;5.07
85096;BMP280;75436;53.502;10.030;2024-02-14T01:32:03;100948.94;;;5.09
85096;BMP280;75436;53.502;10.030;2024-02-14T01:34:30;100940.59;;;5.07
85096;BMP280;75436;53.502;10.030;2024-02-14T01:36:57;100920.31;;;5.04
85096;BMP280;75436;53.502;10.030;2024-02-14T01:39:22;100917.72;;;5.04
85096;BMP280;75436;53.502;10.030;2024-02-14T01:41:50;100898.19;;;5.02
85096;BMP280;75436;53.502;10.030;2024-02-14T01:44:17;100877.41;;;4.97
85096;BMP280;75436;53.502;10.030;2024-02-14T01:46:44;100868.06;;;4.96
85096;BMP280;75436;53.502;10.030;2024-02-14T01:49:13;100853.53;;;4.90
85096;BMP280;75436;53.502;10.030;2024-02-14T01:51:42;100834.00;;;4.93
85096;BMP280;75436;53.502;10.030;2024-02-14T01:54:11;100825.19;;;4.89
85096;BMP280;75436;53.502;10.030;2024-02-14T01:56:39;100815.53;;;4.89
85096;BMP280;75436;53.502;10.030;2024-02-14T01:59:05;100806.16;;;4.93
85096;BMP280;75436;53.502;10.030;2024-02-14T02:01:32;100792.41;;;4.88
85096;BMP280;75436;53.502;10.030;2024-02-14T02:03:58;100787.94;;;4.93
85096;BMP280;75436;53.502;10.030;2024-02-14T02:06:25;100776.25;;;4.91
85096;BMP280;75436;53.502;10.030;2024-02-14T02:08:53;100774.47;;;4.86
85096;BMP280;75436;53.502;10.030;2024-02-14T02:11:20;100763.28;;;4.81
85096;BMP280;75436;53.502;10.030;2024-02-14T02:13:47;100748.97;;;4.83
85096;BMP280;75436;53.502;10.030;2024-02-14T02:16:13;100735.69;;;4.85
85096;BMP280;75436;53.502;10.030;2024-02-14T02:18:40;100724.28;;;4.81
85096;BMP280;75436;53.502;10.030;2024-02-14T02:21:06;100731.28;;;4.85
85096;BMP280;75436;53.502;10.030;2024-02-14T02:23:34;100725.84;;;4.82
85096;BMP280;75436;53.502;10.030;2024-02-14T02:26:01;100712.84;;;4.82
85096;BMP280;75436;53.502;10.030;2024-02-14T02:28:28;100706.31;;;4.84
85096;BMP280;75436;53.502;10.030;2024-02-14T02:30:53;100706.06;;;4.86
85096;BMP280;75436;53.502;10.030;2024-02-14T02:33:21;100707.34;;;4.83
85096;BMP280;75436;53.502;10.030;2024-02-14T02:35:48;100692.25;;;4.85
85096;BMP280;75436;53.502;10.030;2024-02-14T02:38:15;100711.47;;;4.89
85096;BMP280;75436;53.502;10.030;2024-02-14T02:40:43;100708.38;;;4.87
85096;BMP280;75436;53.502;10.030;2024-02-14T02:43:09;100703.16;;;4.92
85096;BMP280;75436;53.502;10.030;2024-02-14T02:45:36;100700.03;;;4.90
85096;BMP280;75436;53.502;10.030;2024-02-14T02:48:02;100707.03;;;4.90
85096;BMP280;75436;53.502;10.030;2024-02-14T02:50:27;100705.50;;;4.89
85096;BMP280;75436;53.502;10.030;2024-02-14T02:52:54;100698.75;;;4.88
85096;BMP280;75436;53.502;10.030;2024-02-14T02:55:20;100693.25;;;4.89
85096;BMP280;75436;53.502;10.030;2024-02-14T02:57:48;100691.16;;;4.91
85096;BMP280;75436;53.502;10.030;2024-02-14T03:00:13;100679.16;;;4.95
85096;BMP280;75436;53.502;10.030;2024-02-14T03:02:41;100675.78;;;4.94
85096;BMP280;75436;53.502;10.030;2024-02-14T03:05:10;100678.94;;;4.92
85096;BMP280;75436;53.502;10.030;2024-02-14T03:07:43;100680.25;;;4.89
85096;BMP280;75436;53.502;10.030;2024-02-14T03:10:11;100674.03;;;4.90
85096;BMP280;75436;53.502;10.030;2024-02-14T03:12:39;100672.97;;;4.91
85096;BMP280;75436;53.502;10.030;2024-02-14T03:15:04;100668.81;;;4.90
85096;BMP280;75436;53.502;10.030;2024-02-14T03:17:30;100669.06;;;4.89
85096;BMP280;75436;53.502;10.030;2024-02-14T03:19:57;100671.69;;;4.89
85096;BMP280;75436;53.502;10.030;2024-02-14T03:22:22;100669.84;;;4.89
85096;BMP280;75436;53.502;10.030;2024-02-14T03:24:48;100664.66;;;4.89
85096;BMP280;75436;53.502;10.030;2024-02-14T03:27:14;100649.81;;;4.90
85096;BMP280;75436;53.502;10.030;2024-02-14T03:29:39;100650.88;;;4.89
85096;BMP280;75436;53.502;10.030;2024-02-14T03:32:07;100649.03;;;4.89
85096;BMP280;75436;53.502;10.030;2024-02-14T03:34:33;100651.13;;;4.87
85096;BMP280;75436;53.502;10.030;2024-02-14T03:37:00;100626.38;;;4.90
85096;BMP280;75436;53.502;10.030;2024-02-14T03:39:32;100624.84;;;4.89
85096;BMP280;75436;53.502;10.030;2024-02-14T03:41:57;100625.13;;;4.87
85096;BMP280;75436;53.502;10.030;2024-02-14T03:44:26;100616.81;;;4.85
85096;BMP280;75436;53.502;10.030;2024-02-14T03:46:53;100617.03;;;4.89
85096;BMP280;75436;53.502;10.030;2024-02-14T03:49:19;100609.50;;;4.87
85096;BMP280;75436;53.502;10.030;2024-02-14T03:51:45;100622.25;;;4.89
85096;BMP280;75436;53.502;10.030;2024-02-14T03:54:11;100599.91;;;4.88
85096;BMP280;75436;53.502;10.030;2024-02-14T03:56:37;100613.69;;;4.88
85096;BMP280;75436;53.502;10.030;2024-02-14T03:59:04;100612.91;;;4.88
85096;BMP280;75436;53.502;10.030;2024-02-14T04:01:31;100630.31;;;4.87
85096;BMP280;75436;53.502;10.030;2024-02-14T04:03:56;100622.50;;;4.87
85096;BMP280;75436;53.502;10.030;2024-02-14T04:06:21;100621.97;;;4.90
85096;BMP280;75436;53.502;10.030;2024-02-14T04:08:48;100621.97;;;4.90
85096;BMP280;75436;53.502;10.030;2024-02-14T04:11:14;100619.66;;;4.89
85096;BMP280;75436;53.502;10.030;2024-02-14T04:13:40;100623.03;;;4.89
85096;BMP280;75436;53.502;10.030;2024-02-14T04:16:08;100607.66;;;4.93
85096;BMP280;75436;53.502;10.030;2024-02-14T04:18:33;100605.81;;;4.93
85096;BMP280;75436;53.502;10.030;2024-02-14T04:21:00;100589.66;;;4.96
85096;BMP280;75436;53.502;10.030;2024-02-14T04:23:26;100595.31;;;4.98
85096;BMP280;75436;53.502;10.030;2024-02-14T04:25:53;100576.84;;;4.99
85096;BMP280;75436;53.502;10.030;2024-02-14T04:28:18;100577.28;;;5.06
85096;BMP280;75436;53.502;10.030;2024-02-14T04:30:43;100573.97;;;5.01
85096;BMP280;75436;53.502;10.030;2024-02-14T04:33:09;100572.91;;;5.02
85096;BMP280;75436;53.502;10.030;2024-02-14T04:35:35;100576.59;;;5.01
85096;BMP280;75436;53.502;10.030;2024-02-14T04:38:01;100566.19;;;5.01
85096;BMP280;75436;53.502;10.030;2024-02-14T04:40:26;100570.56;;;5.05
85096;BMP280;75436;53.502;10.030;2024-02-14T04:42:52;100565.34;;;5.05
85096;BMP280;75436;53.502;10.030;2024-02-14T04:45:18;100563.47;;;5.11
85096;BMP280;75436;53.502;10.030;2024-02-14T04:47:43;100554.88;;;5.10
85096;BMP280;75436;53.502;10.030;2024-02-14T04:50:10;100552.75;;;5.12
85096;BMP280;75436;53.502;10.030;2024-02-14T04:52:36;100549.88;;;5.14
85096;BMP280;75436;53.502;10.030;2024-02-14T04:55:03;100533.75;;;5.12
85096;BMP280;75436;53.502;10.030;2024-02-14T04:57:32;100528.00;;;5.15
85096;BMP280;75436;53.502;10.030;2024-02-14T05:00:00;100534.19;;;5.19
85096;BMP280;75436;53.502;10.030;2024-02-14T05:02:29;100537.31;;;5.21
85096;BMP280;75436;53.502;10.030;2024-02-14T05:04:55;100537.72;;;5.27
85096;BMP280;75436;53.502;10.030;2024-02-14T05:07:22;100534.06;;;5.28
85096;BMP280;75436;53.502;10.030;2024-02-14T05:09:49;100535.44;;;5.26
85096;BMP280;75436;53.502;10.030;2024-02-14T05:12:17;100531.56;;;5.24
85096;BMP280;75436;53.502;10.030;2024-02-14T05:14:43;100527.91;;;5.25
85096;BMP280;75436;53.502;10.030;2024-02-14T05:17:08;100523.38;;;5.30
85096;BMP280;75436;53.502;10.030;2024-02-14T05:19:35;100521.47;;;5.35
85096;BMP280;75436;53.502;10.030;2024-02-14T05:22:00;100514.44;;;5.36
85096;BMP280;75436;53.502;10.030;2024-02-14T05:24:26;100512.63;;;5.36
85096;BMP280;75436;53.502;10.030;2024-02-14T05:26:55;100509.66;;;5.43
85096;BMP280;75436;53.502;10.030;2024-02-14T05:29:20;100510.22;;;5.40
85096;BMP280;75436;53.502;10.030;2024-02-14T05:31:50;100511.03;;;5.40
85096;BMP280;75436;53.502;10.030;2024-02-14T05:34:17;100509.19;;;5.41
85096;BMP280;75436;53.502;10.030;2024-02-14T05:36:43;100500.00;;;5.43
85096;BMP280;75436;53.502;10.030;2024-02-14T05:39:11;100502.78;;;5.52
85096;BMP280;75436;53.502;10.030;2024-02-14T05:41:39;100497.34;;;5.48
85096;BMP280;75436;53.502;10.030;2024-02-14T05:44:05;100498.41;;;5.47
85096;BMP280;75436;53.502;10.030;2024-02-14T05:46:30;100498.91;;;5.49
85096;BMP280;75436;53.502;10.030;2024-02-14T05:48:56;100490.78;;;5.51
85096;BMP280;75436;53.502;10.030;2024-02-14T05:51:22;100496.00;;;5.51
85096;BMP280;75436;53.502;10.030;2024-02-14T05:53:49;100489.47;;;5.53
85096;BMP280;75436;53.502;10.030;2024-02-14T05:56:15;100492.59;;;5.55
85096;BMP280;75436;53.502;10.030;2024-02-14T05:58:40;100485.22;;;5.57
85096;BMP280;75436;53.502;10.030;2024-02-14T06:01:06;100484.59;;;5.65
85096;BMP280;75436;53.502;10.030;2024-02-14T06:03:31;100479.47;;;5.60
85096;BMP280;75436;53.502;10.030;2024-02-14T06:05:57;100482.06;;;5.60
85096;BMP280;75436;53.502;10.030;2024-02-14T06:08:27;100483.59;;;5.61
85096;BMP280;75436;53.502;10.030;2024-02-14T06:10:52;100483.06;;;5.64
85096;BMP280;75436;53.502;10.030;2024-02-14T06:13:18;100484.31;;;5.66
85096;BMP280;75436;53.502;10.030;2024-02-14T06:15:44;100475.25;;;5.64
85096;BMP280;75436;53.502;10.030;2024-02-14T06:18:12;100480.09;;;5.70
85096;BMP280;75436;53.502;10.030;2024-02-14T06:20:38;100479.59;;;5.68
85096;BMP280;75436;53.502;10.030;2024-02-14T06:23:07;100474.66;;;5.67
85096;BMP280;75436;53.502;10.030;2024-02-14T06:25:33;100468.69;;;5.66
85096;BMP280;75436;53.502;10.030;2024-02-14T06:27:59;100471.78;;;5.68
85096;BMP280;75436;53.502;10.030;2024-02-14T06:30:24;100477.00;;;5.68
85096;BMP280;75436;53.502;10.030;2024-02-14T06:32:51;100474.88;;;5.70
85096;BMP280;75436;53.502;10.030;2024-02-14T06:35:18;100469.69;;;5.70
85096;BMP280;75436;53.502;10.030;2024-02-14T06:37:46;100475.94;;;5.69
85096;BMP280;75436;53.502;10.030;2024-02-14T06:40:12;100472.75;;;5.72
85096;BMP280;75436;53.502;10.030;2024-02-14T06:42:38;100473.50;;;5.73
85096;BMP280;75436;53.502;10.030;2024-02-14T06:45:03;100469.03;;;5.78
85096;BMP280;75436;53.502;10.030;2024-02-14T06:47:31;100466.41;;;5.78
85096;BMP280;75436;53.502;10.030;2024-02-14T06:49:56;100472.88;;;5.81
85096;BMP280;75436;53.502;10.030;2024-02-14T06:52:22;100463.50;;;5.80
85096;BMP280;75436;53.502;10.030;2024-02-14T06:54:47;100460.34;;;5.83
85096;BMP280;75436;53.502;10.030;2024-02-14T06:57:13;100461.88;;;5.84
85096;BMP280;75436;53.502;10.030;2024-02-14T06:59:40;100466.34;;;5.83
85096;BMP280;75436;53.502;10.030;2024-02-14T07:02:09;100464.50;;;5.84
85096;BMP280;75436;53.502;10.030;2024-02-14T07:04:37;100464.97;;;5.86
85096;BMP280;75436;53.502;10.030;2024-02-14T07:07:02;100456.28;;;5.90
85096;BMP280;75436;53.502;10.030;2024-02-14T07:09:28;100454.44;;;5.90
85096;BMP280;75436;53.502;10.030;2024-02-14T07:11:54;100452.34;;;5.92
85096;BMP280;75436;53.502;10.030;2024-02-14T07:14:21;100456.28;;;5.90
85096;BMP280;75436;53.502;10.030;2024-02-14T07:16:49;100457.00;;;5.95
85096;BMP280;75436;53.502;10.030;2024-02-14T07:19:14;100457.00;;;5.95
85096;BMP280;75436;53.502;10.030;2024-02-14T07:21:40;100447.72;;;6.03
85096;BMP280;75436;53.502;10.030;2024-02-14T07:24:06;100447.19;;;6.06
85096;BMP280;75436;53.502;10.030;2024-02-14T07:26:31;100450.81;;;6.05
85096;BMP280;75436;53.502;10.030;2024-02-14T07:28:57;100447.19;;;6.06
85096;BMP280;75436;53.502;10.030;2024-02-14T07:31:28;100449.47;;;6.07
85096;BMP280;75436;53.502;10.030;2024-02-14T07:33:56;100452.56;;;6.09
85096;BMP280;75436;53.502;10.030;2024-02-14T07:36:21;100449.97;;;6.09
85096;BMP280;75436;53.502;10.030;2024-02-14T07:38:48;100455.66;;;6.11
85096;BMP280;75436;53.502;10.030;2024-02-14T07:41:15;100445.69;;;6.13
85096;BMP280;75436;53.502;10.030;2024-02-14T07:43:41;100447.94;;;6.20
85096;BMP280;75436;53.502;10.030;2024-02-14T07:46:07;100444.34;;;6.16
85096;BMP280;75436;53.502;10.030;2024-02-14T07:48:35;100448.81;;;6.15
85096;BMP280;75436;53.502;10.030;2024-02-14T07:51:00;100443.50;;;6.20
85096;BMP280;75436;53.502;10.030;2024-02-14T07:53:26;100433.28;;;6.23
85096;BMP280;75436;53.502;10.030;2024-02-14T07:55:51;100439.84;;;6.21
85096;BMP280;75436;53.502;10.030;2024-02-14T07:58:18;100448.44;;;6.21
85096;BMP280;75436;53.502;10.030;2024-02-14T08:00:43;100438.69;;;6.27
85096;BMP280;75436;53.502;10.030;2024-02-14T08:03:09;100437.50;;;6.33
85096;BMP280;75436;53.502;10.030;2024-02-14T08:05:36;100441.41;;;6.35
85096;BMP280;75436;53.502;10.030;2024-02-14T08:08:02;100434.72;;;6.43
85096;BMP280;75436;53.502;10.030;2024-02-14T08:10:28;100431.25;;;6.47
85096;BMP280;75436;53.502;10.030;2024-02-14T08:12:56;100436.94;;;6.49
85096;BMP280;75436;53.502;10.030;2024-02-14T08:15:22;100441.41;;;6.49
85096;BMP280;75436;53.502;10.030;2024-02-14T08:17:50;100435.19;;;6.58
85096;BMP280;75436;53.502;10.030;2024-02-14T08:20:20;100425.81;;;6.57
85096;BMP280;75436;53.502;10.030;2024-02-14T08:22:45;100428.50;;;6.65
85096;BMP280;75436;53.502;10.030;2024-02-14T08:25:11;100431.50;;;6.72
85096;BMP280;75436;53.502;10.030;2024-02-14T08:27:37;100433.69;;;6.79
85096;BMP280;75436;53.502;10.030;2024-02-14T08:30:04;100424.50;;;6.81
85096;BMP280;75436;53.502;10.030;2024-02-14T08:32:32;100415.31;;;6.83
85096;BMP280;75436;53.502;10.030;2024-02-14T08:34:58;100417.50;;;7.03
85096;BMP280;75436;53.502;10.030;2024-02-14T08:37:24;100427.28;;;6.98
85096;BMP280;75436;53.502;10.030;2024-02-14T08:39:50;100433.88;;;6.95
85096;BMP280;75436;53.502;10.030;2024-02-14T08:42:15;100425.44;;;6.98
85096;BMP280;75436;53.502;10.030;2024-02-14T08:44:47;100421.94;;;7.03
85096;BMP280;75436;53.502;10.030;2024-02-14T08:47:12;100423.19;;;7.05
85096;BMP280;75436;53.502;10.030;2024-02-14T08:49:40;100414.84;;;7.16
85096;BMP280;75436;53.502;10.030;2024-02-14T08:52:06;100416.78;;;7.11
85096;BMP280;75436;53.502;10.030;2024-02-14T08:54:32;100428.66;;;7.17
85096;BMP280;75436;53.502;10.030;2024-02-14T08:56:58;100421.63;;;7.17
85096;BMP280;75436;53.502;10.030;2024-02-14T08:59:24;100418.75;;;7.27
85096;BMP280;75436;53.502;10.030;2024-02-14T09:01:49;100426.31;;;7.29
85096;BMP280;75436;53.502;10.030;2024-02-14T09:04:15;100424.03;;;7.36
85096;BMP280;75436;53.502;10.030;2024-02-14T09:06:46;100413.94;;;7.43
85096;BMP280;75436;53.502;10.030;2024-02-14T09:09:11;100422.91;;;7.50
85096;BMP280;75436;53.502;10.030;2024-02-14T09:11:41;100421.34;;;7.49
85096;BMP280;75436;53.502;10.030;2024-02-14T09:14:07;100416.47;;;7.56
85096;BMP280;75436;53.502;10.030;2024-02-14T09:16:33;100419.72;;;7.61
85096;BMP280;75436;53.502;10.030;2024-02-14T09:19:05;100418.25;;;7.69
85096;BMP280;75436;53.502;10.030;2024-02-14T09:21:33;100412.59;;;7.75
85096;BMP280;75436;53.502;10.030;2024-02-14T09:24:02;100414.28;;;7.79
85096;BMP280;75436;53.502;10.030;2024-02-14T09:26:29;100413.56;;;7.87
85096;BMP280;75436;53.502;10.030;2024-02-14T09:28:58;100405.44;;;7.97
85096;BMP280;75436;53.502;10.030;2024-02-14T09:31:23;100404.09;;;8.00
85096;BMP280;75436;53.502;10.030;2024-02-14T09:33:51;100398.72;;;8.05
85096;BMP280;75436;53.502;10.030;2024-02-14T09:36:19;100398.28;;;8.11
85096;BMP280;75436;53.502;10.030;2024-02-14T09:38:46;100399.06;;;8.20
85096;BMP280;75436;53.502;10.030;2024-02-14T09:41:22;100400.16;;;8.27
85096;BMP280;75436;53.502;10.030;2024-02-14T09:43:51;100390.50;;;8.36
85096;BMP280;75436;53.502;10.030;2024-02-14T09:46:17;100396.53;;;8.53
85096;BMP280;75436;53.502;10.030;2024-02-14T09:48:46;100395.28;;;8.59
85096;BMP280;75436;53.502;10.030;2024-02-14T09:51:12;100391.28;;;8.62
85096;BMP280;75436;53.502;10.030;2024-02-14T09:53:39;100397.59;;;8.69
85096;BMP280;75436;53.502;10.030;2024-02-14T09:56:05;100398.97;;;8.66
85096;BMP280;75436;53.502;10.030;2024-02-14T09:58:32;100389.44;;;8.70
85096;BMP280;75436;53.502;10.030;2024-02-14T10:00:58;100392.25;;;8.74
85096;BMP280;75436;53.502;10.030;2024-02-14T10:03:25;100395.91;;;8.81
85096;BMP280;75436;53.502;10.030;2024-02-14T10:05:52;100391.59;;;8.94
85096;BMP280;75436;53.502;10.030;2024-02-14T10:08:18;100398.84;;;8.96
85096;BMP280;75436;53.502;10.030;2024-02-14T10:10:47;100398.38;;;9.03
85096;BMP280;75436;53.502;10.030;2024-02-14T10:13:12;100391.72;;;9.14
85096;BMP280;75436;53.502;10.030;2024-02-14T10:15:38;100380.16;;;9.23
85096;BMP280;75436;53.502;10.030;2024-02-14T10:18:04;100392.47;;;9.31
85096;BMP280;75436;53.502;10.030;2024-02-14T10:20:30;100389.06;;;9.39
85096;BMP280;75436;53.502;10.030;2024-02-14T10:23:05;100387.47;;;9.55
85096;BMP280;75436;53.502;10.030;2024-02-14T10:25:34;100390.69;;;9.60
85096;BMP280;75436;53.502;10.030;2024-02-14T10:28:04;100387.13;;;9.64
85096;BMP280;75436;53.502;10.030;2024-02-14T10:30:33;100393.06;;;9.82
85096;BMP280;75436;53.502;10.030;2024-02-14T10:33:02;100396.44;;;9.82
85096;BMP280;75436;53.502;10.030;2024-02-14T10:35:30;100390.59;;;9.85
85096;BMP280;75436;53.502;10.030;2024-02-14T10:37:58;100387.19;;;9.84
85096;BMP280;75436;53.502;10.030;2024-02-14T10:40:28;100389.81;;;9.84
85096;BMP280;75436;53.502;10.030;2024-02-14T10:43:02;100377.88;;;9.95
85096;BMP280;75436;53.502;10.030;2024-02-14T10:45:29;100387.44;;;10.00
85096;BMP280;75436;53.502;10.030;2024-02-14T10:47:56;100390.66;;;9.97
85096;BMP280;75436;53.502;10.030;2024-02-14T10:50:24;100382.94;;;10.00
85096;BMP280;75436;53.502;10.030;2024-02-14T10:52:56;100389.53;;;10.06
85096;BMP280;75436;53.502;10.030;2024-02-14T10:55:24;100392.31;;;10.10
85096;BMP280;75436;53.502;10.030;2024-02-14T10:57:53;100391.84;;;10.08
85096;BMP280;75436;53.502;10.030;2024-02-14T11:00:20;100403.72;;;10.05
85096;BMP280;75436;53.502;10.030;2024-02-14T11:02:46;100402.50;;;10.11
85096;BMP280;75436;53.502;10.030;2024-02-14T11:05:14;100395.06;;;10.13
85096;BMP280;75436;53.502;10.030;2024-02-14T11:07:46;100405.53;;;10.13
85096;BMP280;75436;53.502;10.030;2024-02-14T11:10:14;100394.06;;;10.26
85096;BMP280;75436;53.502;10.030;2024-02-14T11:12:41;100402.25;;;10.24
85096;BMP280;75436;53.502;10.030;2024-02-14T11:15:11;100398.09;;;10.23
85096;BMP280;75436;53.502;10.030;2024-02-14T11:17:39;100406.72;;;10.24
85096;BMP280;75436;53.502;10.030;2024-02-14T11:20:34;100399.09;;;10.31
85096;BMP280;75436;53.502;10.030;2024-02-14T11:23:05;100400.78;;;10.35
85096;BMP280;75436;53.502;10.030;2024-02-14T11:25:33;100395.34;;;10.40
85096;BMP280;75436;53.502;10.030;2024-02-14T11:28:12;100402.38;;;10.48
85096;BMP280;75436;53.502;10.030;2024-02-14T11:30:42;100403.28;;;10.52
85096;BMP280;75436;53.502;10.030;2024-02-14T11:33:13;100412.69;;;10.53
85096;BMP280;75436;53.502;10.030;2024-02-14T11:35:47;100406.34;;;10.54
85096;BMP280;75436;53.502;10.030;2024-02-14T11:38:18;100416.25;;;10.57
85096;BMP280;75436;53.502;10.030;2024-02-14T11:40:44;100404.50;;;10.54
85096;BMP280;75436;53.502;10.030;2024-02-14T11:43:11;100402.78;;;10.58
85096;BMP280;75436;53.502;10.030;2024-02-14T11:45:43;100412.22;;;10.59
85096;BMP280;75436;53.502;10.030;2024-02-14T11:48:12;100415.72;;;10.63
85096;BMP280;75436;53.502;10.030;2024-02-14T11:50:42;100418.00;;;10.65
85096;BMP280;75436;53.502;10.030;2024-02-14T11:53:15;100420.34;;;10.66
85096;BMP280;75436;53.502;10.030;2024-02-14T11:55:47;100419.81;;;10.73
85096;BMP280;75436;53.502;10.030;2024-02-14T11:58:14;100418.53;;;10.78
85096;BMP280;75436;53.502;10.030;2024-02-14T12:00:43;100423.13;;;10.81
85096;BMP280;75436;53.502;10.030;2024-02-14T12:03:15;100417.34;;;10.88
85096;BMP280;75436;53.502;10.030;2024-02-14T12:05:43;100417.34;;;10.88
85096;BMP280;75436;53.502;10.030;2024-02-14T12:08:26;100412.56;;;10.90
85096;BMP280;75436;53.502;10.030;2024-02-14T12:10:53;100413.91;;;10.96
85096;BMP280;75436;53.502;10.030;2024-02-14T12:13:22;100424.94;;;10.89
85096;BMP280;75436;53.502;10.030;2024-02-14T12:15:49;100423.72;;;10.99
85096;BMP280;75436;53.502;10.030;2024-02-14T12:18:19;100426.28;;;10.95
85096;BMP280;75436;53.502;10.030;2024-02-14T12:20:46;100421.47;;;10.97
85096;BMP280;75436;53.502;10.030;2024-02-14T12:23:16;100423.34;;;10.97
85096;BMP280;75436;53.502;10.030;2024-02-14T12:25:43;100433.16;;;11.00
85096;BMP280;75436;53.502;10.030;2024-02-14T12:28:19;100431.31;;;11.00
85096;BMP280;75436;53.502;10.030;2024-02-14T12:30:48;100427.63;;;11.13
85096;BMP280;75436;53.502;10.030;2024-02-14T12:33:17;100433.34;;;11.15
85096;BMP280;75436;53.502;10.030;2024-02-14T12:35:47;100429.38;;;11.09
85096;BMP280;75436;53.502;10.030;2024-02-14T12:38:15;100431.38;;;11.12
85096;BMP280;75436;53.502;10.030;2024-02-14T12:40:42;100437.59;;;11.19
85096;BMP280;75436;53.502;10.030;2024-02-14T12:43:12;100439.34;;;11.15
85096;BMP280;75436;53.502;10.030;2024-02-14T12:45:43;100433.63;;;11.13
85096;BMP280;75436;53.502;10.030;2024-02-14T12:48:10;100439.56;;;11.10
85096;BMP280;75436;53.502;10.030;2024-02-14T12:50:40;100442.78;;;11.16
85096;BMP280;75436;53.502;10.030;2024-02-14T12:53:13;100437.97;;;11.18
85096;BMP280;75436;53.502;10.030;2024-02-14T12:55:40;100431.81;;;11.14
85096;BMP280;75436;53.502;10.030;2024-02-14T12:58:06;100437.38;;;11.12
85096;BMP280;75436;53.502;10.030;2024-02-14T13:00:32;100441.75;;;11.08
85096;BMP280;75436;53.502;10.030;2024-02-14T13:02:58;100437.59;;;11.19
85096;BMP280;75436;53.502;10.030;2024-02-14T13:05:24;100441.78;;;11.20
85096;BMP280;75436;53.502;10.030;2024-02-14T13:07:51;100440.22;;;11.19
85096;BMP280;75436;53.502;10.030;2024-02-14T13:10:17;100438.19;;;11.25
85096;BMP280;75436;53.502;10.030;2024-02-14T13:12:45;100438.19;;;11.25
85096;BMP280;75436;53.502;10.030;2024-02-14T13:15:10;100437.44;;;11.24
85096;BMP280;75436;53.502;10.030;2024-02-14T13:17:37;100448.03;;;11.28
85096;BMP280;75436;53.502;10.030;2024-02-14T13:20:03;100448.03;;;11.28
85096;BMP280;75436;53.502;10.030;2024-02-14T13:22:30;100442.16;;;11.31
85096;BMP280;75436;53.502;10.030;2024-02-14T13:24:56;100445.63;;;11.34
85096;BMP280;75436;53.502;10.030;2024-02-14T13:27:22;100446.75;;;11.33
85096;BMP280;75436;53.502;10.030;2024-02-14T13:29:50;100447.19;;;11.35
85096;BMP280;75436;53.502;10.030;2024-02-14T13:32:19;100450.13;;;11.34
85096;BMP280;75436;53.502;10.030;2024-02-14T13:34:44;100450.13;;;11.34
85096;BMP280;75436;53.502;10.030;2024-02-14T13:37:10;100442.91;;;11.43
85096;BMP280;75436;53.502;10.030;2024-02-14T13:39:36;100452.44;;;11.35
85096;BMP280;75436;53.502;10.030;2024-02-14T13:42:02;100444.63;;;11.47
85096;BMP280;75436;53.502;10.030;2024-02-14T13:44:27;100445.00;;;11.49
85096;BMP280;75436;53.502;10.030;2024-02-14T13:46:53;100443.06;;;11.46
85096;BMP280;75436;53.502;10.030;2024-02-14T13:49:19;100445.91;;;11.53
85096;BMP280;75436;53.502;10.030;2024-02-14T13:51:50;100442.84;;;11.63
85096;BMP280;75436;53.502;10.030;2024-02-14T13:54:21;100449.97;;;11.62